createdAt,value
2018-07-25T00:04:41.203Z,2.00
2018-07-25T00:09:44.926Z,2.15
2018-07-25T00:14:48.512Z,2.13
2018-07-25T00:19:51.937Z,2.00
2018-07-25T00:24:55.449Z,2.02
2018-07-25T00:29:59.089Z,2.43
2018-07-25T00:35:02.725Z,2.10
2018-07-25T00:40:06.445Z,2.12
2018-07-25T00:45:09.937Z,1.87
2018-07-25T00:50:13.457Z,2.10
2018-07-25T00:55:16.984Z,2.27
2018-07-25T01:00:20.608Z,2.25
2018-07-25T01:05:24.219Z,2.20
2018-07-25T01:10:27.785Z,2.05
2018-07-25T01:15:31.337Z,1.73
2018-07-25T01:20:34.896Z,2.30
2018-07-25T01:25:38.458Z,2.02
2018-07-25T01:30:41.981Z,1.97
2018-07-25T01:35:45.457Z,2.22
2018-07-25T01:40:49.042Z,2.15
2018-07-25T01:45:52.577Z,2.33
2018-07-25T01:50:56.083Z,2.20
2018-07-25T01:55:59.578Z,2.17
2018-07-25T02:01:03.060Z,2.12
2018-07-25T02:06:06.541Z,2.15
2018-07-25T02:11:10.146Z,2.25
2018-07-25T02:16:13.644Z,2.10
2018-07-25T02:21:17.433Z,2.30
2018-07-25T02:26:20.989Z,2.30
2018-07-25T02:31:24.441Z,2.08
2018-07-25T02:36:27.905Z,2.27
2018-07-25T02:41:31.723Z,2.27
2018-07-25T02:46:35.459Z,2.30
2018-07-25T02:51:38.921Z,2.27
2018-07-25T02:56:42.414Z,2.45
2018-07-25T03:01:46.111Z,2.40
2018-07-25T03:06:49.598Z,2.42
2018-07-25T03:11:53.057Z,2.75
2018-07-25T03:16:56.900Z,2.27
2018-07-25T03:22:00.573Z,2.30
2018-07-25T03:27:04.226Z,2.50
2018-07-25T03:32:07.881Z,2.20
2018-07-25T03:37:11.492Z,2.13
2018-07-25T03:42:15.251Z,2.33
2018-07-25T03:47:19.137Z,2.07
2018-07-25T03:52:22.893Z,2.00
2018-07-25T03:57:26.514Z,2.07
2018-07-25T04:02:30.162Z,2.40
2018-07-25T04:07:33.662Z,2.85
2018-07-25T04:12:37.212Z,2.47
2018-07-25T04:17:48.814Z,1.98
2018-07-25T04:22:52.481Z,2.52
2018-07-25T04:27:55.959Z,2.55
2018-07-25T04:32:59.459Z,2.60
2018-07-25T04:38:03.003Z,2.80
2018-07-25T04:43:06.741Z,2.65
2018-07-25T04:48:10.204Z,2.47
2018-07-25T04:53:13.890Z,2.73
2018-07-25T04:58:17.349Z,2.58
2018-07-25T05:03:20.910Z,2.65
2018-07-25T05:08:24.550Z,3.10
2018-07-25T05:13:28.927Z,2.58
2018-07-25T05:18:32.442Z,2.50
2018-07-25T05:23:36.343Z,2.83
2018-07-25T05:28:39.824Z,2.90
2018-07-25T05:33:43.282Z,2.62
2018-07-25T05:38:46.946Z,2.83
2018-07-25T05:43:50.822Z,2.80
2018-07-25T05:48:54.471Z,2.40
2018-07-25T05:53:58.109Z,2.40
2018-07-25T05:59:02.028Z,2.77
2018-07-25T06:04:05.550Z,2.58
2018-07-25T06:09:10.173Z,2.40
2018-07-25T06:14:13.627Z,2.73
2018-07-25T06:19:17.240Z,2.70
2018-07-25T06:24:20.672Z,2.42
2018-07-25T06:29:24.150Z,2.87
2018-07-25T06:34:27.629Z,2.52
2018-07-25T06:39:31.228Z,2.70
2018-07-25T06:44:34.742Z,2.30
2018-07-25T06:49:38.204Z,2.60
2018-07-25T06:54:41.753Z,2.33
2018-07-25T06:59:45.641Z,2.80
2018-07-25T07:04:49.271Z,2.60
2018-07-25T07:09:52.701Z,2.60
2018-07-25T07:14:56.413Z,2.50
2018-07-25T07:20:00.121Z,2.55
2018-07-25T07:25:04.164Z,2.57
2018-07-25T07:30:08.434Z,2.10
2018-07-25T07:35:12.063Z,2.70
2018-07-25T07:40:15.830Z,2.33
2018-07-25T07:45:19.298Z,2.22
2018-07-25T07:50:23.063Z,2.25
2018-07-25T07:55:26.998Z,2.23
2018-07-25T08:00:30.459Z,2.30
2018-07-25T08:05:34.131Z,2.17
2018-07-25T08:10:37.718Z,2.20
2018-07-25T08:15:41.326Z,1.92
2018-07-25T08:20:44.886Z,2.05
2018-07-25T08:25:48.344Z,2.07
2018-07-25T08:30:52.108Z,2.00
2018-07-25T08:35:55.832Z,1.80
2018-07-25T08:40:59.456Z,1.98
2018-07-25T08:46:03.381Z,1.87
2018-07-25T08:51:07.194Z,1.90
2018-07-25T08:56:10.733Z,1.80
2018-07-25T09:01:14.217Z,1.90
2018-07-25T09:06:17.919Z,1.80
2018-07-25T09:11:26.568Z,1.85
2018-07-25T09:16:30.862Z,1.82
2018-07-25T09:21:34.639Z,1.90
2018-07-25T09:26:38.364Z,2.10
2018-07-25T09:31:42.181Z,1.93
2018-07-25T09:36:45.705Z,1.80
2018-07-25T09:41:49.213Z,1.95
2018-07-25T09:46:53.218Z,2.03
2018-07-25T09:51:56.654Z,2.20
2018-07-25T09:57:00.385Z,2.40
2018-07-25T10:02:04.151Z,2.40
2018-07-25T10:07:07.686Z,2.17
2018-07-25T10:12:11.259Z,2.30
2018-07-25T10:17:14.753Z,2.40
2018-07-25T10:22:18.672Z,2.60
2018-07-25T10:27:22.348Z,2.47
2018-07-25T10:32:25.920Z,2.70
2018-07-25T10:37:29.728Z,2.80
2018-07-25T10:42:33.322Z,2.77
2018-07-25T10:47:37.045Z,2.52
2018-07-25T10:52:40.575Z,2.20
2018-07-25T10:57:44.042Z,2.58
2018-07-25T11:02:47.566Z,2.57
2018-07-25T11:07:51.104Z,2.42
2018-07-25T11:12:54.621Z,2.72
2018-07-25T11:17:58.316Z,2.73
2018-07-25T11:23:02.000Z,2.60
2018-07-25T11:28:05.805Z,2.72
2018-07-25T11:33:09.261Z,2.37
2018-07-25T11:38:12.804Z,2.62
2018-07-25T11:43:16.438Z,2.33
2018-07-25T11:48:19.914Z,2.22
2018-07-25T11:53:23.527Z,2.42
2018-07-25T11:58:27.612Z,2.17
2018-07-25T12:03:31.135Z,2.45
2018-07-25T12:08:34.688Z,2.10
2018-07-25T12:13:38.741Z,2.47
2018-07-25T12:18:42.613Z,2.00
2018-07-25T12:23:46.078Z,2.40
2018-07-25T12:28:49.768Z,2.40
2018-07-25T12:33:53.345Z,2.20
2018-07-25T12:38:57.166Z,1.83
2018-07-25T12:44:00.722Z,1.87
2018-07-25T12:49:04.375Z,2.08
2018-07-25T12:54:08.045Z,1.98
2018-07-25T12:59:11.865Z,1.72
2018-07-25T13:04:15.563Z,2.05
2018-07-25T13:09:19.242Z,1.87
2018-07-25T13:14:22.695Z,2.30
2018-07-25T13:19:26.365Z,2.23
2018-07-25T13:24:29.958Z,1.70
2018-07-25T13:29:33.707Z,1.53
2018-07-25T13:34:37.209Z,1.87
2018-07-25T13:39:40.762Z,1.67
2018-07-25T13:44:44.355Z,1.92
2018-07-25T13:49:48.205Z,1.30
2018-07-25T13:54:52.010Z,1.90
2018-07-25T13:59:55.802Z,2.12
2018-07-25T14:04:59.836Z,2.00
2018-07-25T14:10:04.349Z,1.80
2018-07-25T14:15:08.085Z,1.42
2018-07-25T14:20:11.949Z,2.00
2018-07-25T14:25:16.116Z,2.22
2018-07-25T14:30:20.032Z,1.50
2018-07-25T14:35:24.170Z,2.10
2018-07-25T14:40:28.094Z,2.07
2018-07-25T14:45:31.605Z,1.67
2018-07-25T14:50:35.168Z,1.27
2018-07-25T14:55:38.693Z,1.67
2018-07-25T15:00:42.211Z,1.82
2018-07-25T15:05:46.045Z,1.50
2018-07-25T15:10:50.168Z,1.92
2018-07-25T15:15:54.341Z,1.40
2018-07-25T15:20:57.989Z,1.72
2018-07-25T15:26:01.554Z,1.47
2018-07-25T15:31:06.006Z,1.50
2018-07-25T15:36:10.421Z,1.60
2018-07-25T15:41:14.373Z,1.40
2018-07-25T15:46:18.300Z,1.17
2018-07-25T15:51:21.827Z,1.57
2018-07-25T15:56:25.430Z,1.40
2018-07-25T16:01:29.210Z,1.72
2018-07-25T16:06:33.400Z,1.27
2018-07-25T16:11:37.301Z,1.37
2018-07-25T16:16:40.989Z,1.20
2018-07-25T16:21:44.497Z,1.55
2018-07-25T16:26:48.270Z,1.42
2018-07-25T16:31:52.178Z,1.40
2018-07-25T16:36:55.708Z,1.30
2018-07-25T16:42:00.043Z,1.30
2018-07-25T16:47:03.912Z,1.55
2018-07-25T16:52:07.683Z,1.30
2018-07-25T16:57:11.581Z,1.40
2018-07-25T17:02:15.092Z,1.17
2018-07-25T17:07:19.028Z,1.32
2018-07-25T17:12:23.865Z,1.30
2018-07-25T17:17:27.369Z,1.50
2018-07-25T17:22:31.239Z,1.00
2018-07-25T17:27:35.183Z,1.07
2018-07-25T17:32:39.077Z,1.20
2018-07-25T17:37:42.533Z,1.10
2018-07-25T17:42:46.358Z,1.20
2018-07-25T17:47:49.960Z,1.20
2018-07-25T17:52:53.480Z,1.15
2018-07-25T17:57:57.077Z,1.10
2018-07-25T18:03:01.058Z,1.00
2018-07-25T18:08:04.741Z,1.20
2018-07-25T18:13:13.620Z,1.42
2018-07-25T18:18:17.860Z,1.20
2018-07-25T18:23:21.429Z,1.42
2018-07-25T18:28:25.174Z,1.20
2018-07-25T18:33:28.955Z,1.42
2018-07-25T18:38:32.820Z,1.10
2018-07-25T18:43:36.737Z,1.27
2018-07-25T18:48:40.927Z,0.98
2018-07-25T18:53:45.957Z,1.27
2018-07-25T18:58:50.014Z,1.10
2018-07-25T19:03:53.937Z,1.30
2018-07-25T19:12:54.584Z,1.05
2018-07-25T19:17:58.134Z,1.52
2018-07-25T19:23:01.562Z,1.20
2018-07-25T19:28:05.510Z,1.22
2018-07-25T19:33:09.012Z,1.20
2018-07-25T19:38:12.517Z,1.42
2018-07-25T19:43:16.099Z,1.92
2018-07-25T19:48:19.539Z,1.50
2018-07-25T19:53:22.979Z,1.50
2018-07-25T19:58:26.752Z,1.62
2018-07-25T20:03:30.278Z,1.60
2018-07-25T20:08:33.838Z,1.50
2018-07-25T20:13:41.545Z,2.00
2018-07-25T20:18:45.390Z,1.55
2018-07-25T20:23:49.153Z,1.50
2018-07-25T20:28:52.594Z,1.60
2018-07-25T20:33:56.603Z,1.57
2018-07-25T20:39:00.121Z,1.60
2018-07-25T20:44:03.694Z,1.50
2018-07-25T20:49:08.065Z,1.52
2018-07-25T20:54:11.509Z,1.90
2018-07-25T20:59:15.077Z,1.73
2018-07-25T21:04:19.017Z,1.50
2018-07-25T21:09:22.541Z,1.70
2018-07-25T21:14:26.053Z,1.50
2018-07-25T21:19:29.847Z,1.80
2018-07-25T21:24:33.505Z,2.07
2018-07-25T21:29:37.646Z,1.87
2018-07-25T21:34:42.038Z,2.13
2018-07-25T21:39:45.738Z,1.57
2018-07-25T21:44:51.086Z,2.10
2018-07-25T21:49:55.566Z,1.95
2018-07-25T21:54:59.037Z,2.02
2018-07-25T22:00:02.606Z,1.83
2018-07-25T22:05:06.344Z,1.90
2018-07-25T22:10:10.561Z,1.90
2018-07-25T22:15:14.365Z,1.80
2018-07-25T22:20:18.040Z,1.83
2018-07-25T22:25:21.650Z,1.60
2018-07-25T22:30:25.585Z,1.65
2018-07-25T22:35:29.012Z,1.65
2018-07-25T22:40:32.657Z,1.73
2018-07-25T22:45:36.431Z,1.50
2018-07-25T22:50:39.965Z,1.80
2018-07-25T22:55:43.634Z,1.57
2018-07-25T23:00:47.096Z,1.62
2018-07-25T23:05:50.672Z,1.72
2018-07-25T23:10:54.284Z,1.95
2018-07-25T23:15:57.825Z,1.80
2018-07-25T23:21:01.486Z,1.70
2018-07-25T23:26:05.067Z,2.08
2018-07-25T23:31:08.726Z,1.95
2018-07-25T23:36:12.377Z,1.90
2018-07-25T23:41:15.943Z,1.52
2018-07-25T23:46:19.690Z,1.80
2018-07-25T23:51:23.161Z,1.90
2018-07-25T23:56:26.825Z,1.98
